Terminal Aerodrome Forecast
Issued by NWS

Home | Current Version | Previous Version | Text Only | Print | Product List | Glossary On
Versions: 1 2 3 4 5 6 7 8 9 10 11 12 13 14 15 16 17
044
FTUS43 KIND 261720
TAFHUF
TAF
KHUF 261720Z 2618/2718 08005KT P6SM BKN050
     FM262300 VRB03KT P6SM BKN100
     FM270500 00000KT P6SM BKN080
     FM270900 00000KT 3SM BR SCT080
      TEMPO 2709/2713 1SM BR
     FM271300 00000KT P6SM SCT080
     FM271500 05005KT P6SM SCT035=

USA.gov is the U.S. government's official web portal to all federal, state and local government web resources and services.